Port Mouton, Canada
Current Conditions -  °F | °C
As of 11:00 PM on Thursday 27 Nov 2014 (Local Time) from CYQI Reporting Station
Snow Showers Snow Showers  
Wind Chill: 32°   Ceiling: 2200
Heat Index: 32°   Visibility: 10mi
Dew Point: 30°   Wind: 3mph
Humidity: 93%   Direction: 360°N
Pressure: 29.96"   Gusts: NA
Location:  43.93°N, 64.85°W
Report Text: CYQI 280300Z 36003KT 10SM -SHSN OVC022 M00/M01 A2996 RMK SC8 SLP148
Loading
Personal Weather Stations






























Interactive Weather Map New forecast layout! Learn more

10-Day Weather Forecast

Advertisements
Track Severe Weather on mobile